< < Back
Terminal Aerodrome Forecast


Current Version              Previous Versions:   1  2  3  4  5  6  7  8  9  

Terminal Aerodrome Forecast

742
FTUS42 KILM 230500
TAFFLO
TAF
KFLO 230539Z 2306/2406 VRB03KT P6SM BKN080
     FM231100 06004KT P6SM VCSH SCT040 BKN060
     FM231300 07005KT 6SM -RA BKN020 OVC035
     FM231700 10010KT 2SM -RA BR BKN006 OVC012
     FM240000 17015KT 3SM -RA BR SCT004 BKN008 OVC012=

Latest METAR

238
SAUS70 KWBC 232200 RRB
MTRFLO
METAR KFLO 232153Z 14014KT 5SM -RA BR OVC007 18/17 A2990 RMK AO2
RAE2057B23 SLP122 P0001 T01830167


USA.gov is the U.S. government's official web portal to all federal, state and local government web resources and services.